Terminal Aerodrome Forecast
Issued by NWS

Home | Current Version | Previous Version | Text Only | Print | Product List | Glossary On
Versions: 1 2 3 4 5 6 7 8 9 10 11 12
000
FTUS46 KSTO 051745
TAFSMF
TAF
KSMF 051745Z 0518/0618 18010KT P6SM BKN050 OVC100
      TEMPO 0518/0522 16014G25KT 6SM -TSRA BKN040CB
     FM060200 18015KT P6SM VCSH OVC050
     FM060600 16012KT P6SM -SHRA OVC030=

USA.gov is the U.S. government's official web portal to all federal, state and local government web resources and services.